Time;durP1;ratioP1;P1;durP2;ratioP2;P2;SDS_P1;SDS_P2;PMS_P1;PMS_P2;Temp;Humidity;BMP_temperature;BMP_pressure;BME280_temperature;BME280_humidity;BME280_pressure;Samples;Min_cycle;Max_cycle;Signal;HPM_P1;HPM_P2
2022/07/24 00:00:23;;;;;;;2.78;1.50;;;;;;;;;;5003164;28;20804;-55
2022/07/24 00:02:49;;;;;;;2.35;1.58;;;;;;;;;;4997048;28;20230;-52
2022/07/24 00:05:16;;;;;;;1.85;1.45;;;;;;;;;;5006991;28;20233;-53
2022/07/24 00:07:43;;;;;;;2.70;1.45;;;;;;;;;;5013187;28;20728;-53
2022/07/24 00:10:10;;;;;;;1.73;1.52;;;;;;;;;;5007033;28;20240;-52
2022/07/24 00:12:36;;;;;;;1.55;1.10;;;;;;;;;;5005597;28;20225;-53
2022/07/24 00:15:04;;;;;;;2.60;1.50;;;;;;;;;;5004040;28;20703;-55
2022/07/24 00:17:30;;;;;;;1.27;1.10;;;;;;;;;;5005928;28;20320;-54
2022/07/24 00:19:57;;;;;;;1.73;1.60;;;;;;;;;;4992645;28;20234;-53
2022/07/24 00:22:23;;;;;;;1.30;1.20;;;;;;;;;;5006235;28;20237;-51
2022/07/24 00:24:50;;;;;;;2.83;1.20;;;;;;;;;;5005390;28;20648;-53
2022/07/24 00:27:16;;;;;;;1.30;1.23;;;;;;;;;;5001560;28;20233;-53
2022/07/24 00:29:42;;;;;;;1.20;1.10;;;;;;;;;;4992136;28;20244;-53
2022/07/24 00:32:10;;;;;;;1.30;1.20;;;;;;;;;;5005067;28;20241;-53
2022/07/24 00:34:36;;;;;;;1.52;1.25;;;;;;;;;;5005217;28;20229;-52
2022/07/24 00:37:03;;;;;;;2.20;1.52;;;;;;;;;;4989488;28;20240;-55
2022/07/24 00:39:29;;;;;;;1.73;1.30;;;;;;;;;;4998201;28;20786;-53
2022/07/24 00:41:56;;;;;;;1.25;1.00;;;;;;;;;;5007427;28;20757;-52
2022/07/24 00:44:22;;;;;;;1.80;1.20;;;;;;;;;;4998207;28;20238;-52
2022/07/24 00:46:49;;;;;;;1.30;1.20;;;;;;;;;;4989396;28;20230;-59
2022/07/24 00:49:19;;;;;;;1.67;1.30;;;;;;;;;;5007803;28;20237;-55
2022/07/24 00:51:46;;;;;;;2.40;1.45;;;;;;;;;;5009452;28;20272;-52
2022/07/24 00:54:13;;;;;;;1.48;1.38;;;;;;;;;;5000489;28;20655;-52
2022/07/24 00:56:40;;;;;;;1.77;1.55;;;;;;;;;;4999864;28;20237;-53
2022/07/24 00:59:06;;;;;;;2.38;1.77;;;;;;;;;;5007790;28;20240;-52
2022/07/24 01:01:33;;;;;;;3.05;1.65;;;;;;;;;;5006086;28;20233;-52
2022/07/24 01:03:59;;;;;;;4.43;1.45;;;;;;;;;;4994327;28;20241;-53
2022/07/24 01:06:27;;;;;;;2.80;1.38;;;;;;;;;;5008812;28;20675;-53
2022/07/24 01:08:54;;;;;;;1.38;1.27;;;;;;;;;;5008402;28;20815;-52
2022/07/24 01:11:20;;;;;;;2.47;1.50;;;;;;;;;;5008732;28;20237;-53
2022/07/24 01:13:47;;;;;;;1.40;1.30;;;;;;;;;;5008233;28;20233;-53
2022/07/24 01:16:14;;;;;;;1.20;1.10;;;;;;;;;;5007242;28;20612;-52
2022/07/24 01:18:40;;;;;;;1.40;1.25;;;;;;;;;;5001899;28;20245;-54
2022/07/24 01:21:08;;;;;;;2.28;1.73;;;;;;;;;;5010356;28;20225;-52
2022/07/24 01:23:35;;;;;;;1.38;1.08;;;;;;;;;;5007591;28;20253;-52
2022/07/24 01:26:01;;;;;;;1.70;1.60;;;;;;;;;;5015627;28;20256;-51
2022/07/24 01:28:28;;;;;;;2.65;1.10;;;;;;;;;;5005206;28;20228;-53
2022/07/24 01:30:54;;;;;;;1.30;1.20;;;;;;;;;;5006486;28;20239;-53
2022/07/24 01:33:21;;;;;;;4.45;1.88;;;;;;;;;;5013756;28;20229;-52
2022/07/24 01:35:47;;;;;;;1.70;1.60;;;;;;;;;;5008919;28;20255;-53
2022/07/24 01:38:15;;;;;;;2.60;2.35;;;;;;;;;;5007193;28;20617;-52
2022/07/24 01:40:42;;;;;;;3.92;2.30;;;;;;;;;;5006673;28;20245;-53
2022/07/24 01:43:08;;;;;;;2.35;2.15;;;;;;;;;;5007433;28;20241;-53
2022/07/24 01:45:35;;;;;;;2.42;2.25;;;;;;;;;;5003699;28;20241;-53
2022/07/24 01:48:01;;;;;;;2.50;2.22;;;;;;;;;;5006353;28;20731;-53
2022/07/24 01:50:28;;;;;;;3.40;2.50;;;;;;;;;;5006940;28;20234;-52
2022/07/24 01:52:54;;;;;;;4.13;2.28;;;;;;;;;;5010289;28;20230;-53
2022/07/24 01:55:22;;;;;;;3.53;2.40;;;;;;;;;;4997118;28;20233;-51
2022/07/24 01:57:48;;;;;;;2.38;2.17;;;;;;;;;;4985934;28;20890;-52
2022/07/24 02:00:16;;;;;;;3.22;2.22;;;;;;;;;;5001733;28;20247;-52
2022/07/24 02:02:43;;;;;;;2.65;2.45;;;;;;;;;;4997534;28;20329;-53
2022/07/24 02:05:10;;;;;;;4.07;3.03;;;;;;;;;;5007212;28;20233;-52
2022/07/24 02:07:36;;;;;;;3.22;2.40;;;;;;;;;;5006515;28;20235;-51
2022/07/24 02:10:03;;;;;;;3.00;2.42;;;;;;;;;;5006240;28;20239;-52
2022/07/24 02:12:30;;;;;;;2.85;2.38;;;;;;;;;;5006397;28;20233;-53
2022/07/24 02:14:57;;;;;;;3.58;2.80;;;;;;;;;;5005573;28;20233;-53
2022/07/24 02:17:23;;;;;;;3.20;2.90;;;;;;;;;;5008980;28;20235;-52
2022/07/24 02:19:49;;;;;;;2.42;2.22;;;;;;;;;;5007669;28;20237;-52
2022/07/24 02:22:16;;;;;;;3.22;2.53;;;;;;;;;;5014493;28;20239;-52
2022/07/24 02:24:42;;;;;;;3.83;2.58;;;;;;;;;;5006411;28;20229;-54
2022/07/24 02:27:08;;;;;;;2.50;2.30;;;;;;;;;;5003406;28;20237;-52
2022/07/24 02:29:36;;;;;;;3.80;2.65;;;;;;;;;;5006797;28;20232;-54
2022/07/24 02:32:02;;;;;;;2.55;2.35;;;;;;;;;;5006630;28;20249;-53
2022/07/24 02:34:29;;;;;;;2.13;1.92;;;;;;;;;;5006582;28;20229;-53
2022/07/24 02:36:55;;;;;;;2.53;2.13;;;;;;;;;;5006565;28;20244;-52
2022/07/24 02:39:21;;;;;;;2.15;1.92;;;;;;;;;;5005943;28;20241;-59
2022/07/24 02:41:48;;;;;;;3.20;2.28;;;;;;;;;;5005513;28;20288;-53
2022/07/24 02:44:16;;;;;;;4.28;2.05;;;;;;;;;;5006444;28;20232;-52
2022/07/24 02:46:43;;;;;;;1.95;1.83;;;;;;;;;;5005424;28;20613;-54
2022/07/24 02:49:10;;;;;;;5.45;2.42;;;;;;;;;;5006009;28;20240;-52
2022/07/24 02:51:36;;;;;;;2.28;2.00;;;;;;;;;;5006468;28;20240;-52
2022/07/24 02:54:02;;;;;;;4.95;2.22;;;;;;;;;;5004802;28;20244;-52
2022/07/24 02:56:29;;;;;;;2.17;1.98;;;;;;;;;;4989350;28;20238;-53
2022/07/24 02:58:55;;;;;;;3.67;2.17;;;;;;;;;;5005138;28;20283;-52
2022/07/24 03:01:21;;;;;;;3.05;2.10;;;;;;;;;;5000403;28;20237;-53
2022/07/24 03:03:49;;;;;;;3.08;2.05;;;;;;;;;;4987472;28;20321;-52
2022/07/24 03:06:15;;;;;;;2.15;1.80;;;;;;;;;;4993276;28;20239;-52
2022/07/24 03:08:42;;;;;;;1.67;1.58;;;;;;;;;;5005947;28;20316;-52
2022/07/24 03:11:08;;;;;;;1.63;1.42;;;;;;;;;;5005608;28;20233;-52
2022/07/24 03:13:34;;;;;;;1.63;1.42;;;;;;;;;;5013160;28;20592;-53
2022/07/24 03:16:01;;;;;;;1.73;1.60;;;;;;;;;;5005313;28;20236;-52
2022/07/24 03:18:27;;;;;;;4.95;1.95;;;;;;;;;;5007853;28;20248;-51
2022/07/24 03:20:55;;;;;;;2.28;1.73;;;;;;;;;;4990033;28;20237;-53
2022/07/24 03:23:21;;;;;;;2.95;1.60;;;;;;;;;;5005965;28;20233;-52
2022/07/24 03:25:48;;;;;;;2.58;1.58;;;;;;;;;;5004936;28;20244;-52
2022/07/24 03:28:14;;;;;;;1.92;1.55;;;;;;;;;;4990013;28;20588;-52
2022/07/24 03:30:40;;;;;;;1.70;1.60;;;;;;;;;;4986222;28;20746;-53
2022/07/24 03:33:07;;;;;;;7.15;1.70;;;;;;;;;;5003904;28;20238;-52
2022/07/24 03:35:34;;;;;;;2.83;2.28;;;;;;;;;;5000170;28;20305;-52
2022/07/24 03:38:02;;;;;;;2.40;1.58;;;;;;;;;;5005410;28;20759;-52
2022/07/24 03:40:28;;;;;;;2.38;1.65;;;;;;;;;;5004501;28;20605;-53
2022/07/24 03:42:54;;;;;;;2.17;1.30;;;;;;;;;;5005326;28;20256;-52
2022/07/24 03:45:21;;;;;;;1.52;1.40;;;;;;;;;;5004653;28;20233;-52
2022/07/24 03:47:47;;;;;;;1.95;1.55;;;;;;;;;;5004386;28;20233;-53
2022/07/24 03:50:13;;;;;;;1.58;1.48;;;;;;;;;;5001982;28;20241;-53
2022/07/24 03:52:40;;;;;;;1.58;1.48;;;;;;;;;;5007922;28;20252;-53
2022/07/24 03:55:08;;;;;;;1.75;1.30;;;;;;;;;;5022071;28;20228;-52
2022/07/24 03:57:34;;;;;;;1.58;1.33;;;;;;;;;;5005449;28;20237;-52
2022/07/24 04:00:01;;;;;;;1.50;1.40;;;;;;;;;;4997374;28;20253;-52
2022/07/24 04:02:27;;;;;;;3.42;1.60;;;;;;;;;;4997124;28;20240;-52
2022/07/24 04:04:53;;;;;;;1.25;1.15;;;;;;;;;;4989262;28;20241;-52
2022/07/24 04:07:20;;;;;;;3.22;1.60;;;;;;;;;;5005633;28;20284;-53
2022/07/24 04:09:46;;;;;;;1.27;1.17;;;;;;;;;;5013339;28;20757;-54
2022/07/24 04:12:14;;;;;;;2.42;1.65;;;;;;;;;;5021292;28;20483;-53
2022/07/24 04:14:40;;;;;;;2.60;1.50;;;;;;;;;;5016625;28;20360;-52
2022/07/24 04:17:06;;;;;;;1.58;1.48;;;;;;;;;;5008835;28;20240;-51
2022/07/24 04:19:33;;;;;;;1.13;1.10;;;;;;;;;;4995917;28;20237;-53
2022/07/24 04:22:00;;;;;;;1.60;1.50;;;;;;;;;;4996821;28;20244;-54
2022/07/24 04:24:26;;;;;;;1.85;1.30;;;;;;;;;;5009853;28;20240;-53
2022/07/24 04:26:53;;;;;;;3.15;1.17;;;;;;;;;;5006299;28;20226;-52
2022/07/24 04:29:20;;;;;;;1.70;1.20;;;;;;;;;;5008092;28;20240;-52
2022/07/24 04:31:47;;;;;;;0.88;0.85;;;;;;;;;;4998395;28;20248;-51
2022/07/24 04:34:13;;;;;;;2.42;1.30;;;;;;;;;;4994267;28;20249;-53
2022/07/24 04:36:39;;;;;;;1.85;1.33;;;;;;;;;;5008556;28;20711;-51
2022/07/24 04:39:06;;;;;;;4.88;1.98;;;;;;;;;;5008494;28;20237;-51
2022/07/24 04:41:32;;;;;;;1.42;1.33;;;;;;;;;;5007272;28;20248;-52
2022/07/24 04:43:59;;;;;;;1.30;1.20;;;;;;;;;;5007197;28;20245;-51
2022/07/24 04:46:27;;;;;;;1.08;1.08;;;;;;;;;;5003621;28;20822;-53
2022/07/24 04:48:53;;;;;;;1.30;1.15;;;;;;;;;;5008618;28;20268;-52
2022/07/24 04:51:19;;;;;;;1.50;1.40;;;;;;;;;;5005227;28;20237;-52
2022/07/24 04:53:46;;;;;;;1.70;1.48;;;;;;;;;;5008872;28;20743;-53
2022/07/24 04:56:13;;;;;;;1.73;1.30;;;;;;;;;;5007719;28;20237;-52
2022/07/24 04:58:39;;;;;;;2.95;1.33;;;;;;;;;;5008464;28;20229;-52
2022/07/24 05:01:05;;;;;;;1.40;1.30;;;;;;;;;;4991430;28;20245;-53
2022/07/24 05:03:33;;;;;;;3.47;1.25;;;;;;;;;;5005366;28;20234;-56
2022/07/24 05:05:59;;;;;;;1.73;1.30;;;;;;;;;;5014638;28;20239;-53
2022/07/24 05:08:26;;;;;;;1.50;1.40;;;;;;;;;;5011960;28;20248;-54
2022/07/24 05:10:52;;;;;;;1.23;1.13;;;;;;;;;;5002065;28;20245;-52
2022/07/24 05:13:19;;;;;;;1.70;1.60;;;;;;;;;;4988952;28;20240;-51
2022/07/24 05:15:45;;;;;;;1.83;1.05;;;;;;;;;;4996166;28;20233;-51
2022/07/24 05:18:11;;;;;;;3.20;1.15;;;;;;;;;;5006093;28;20242;-53
2022/07/24 05:20:39;;;;;;;1.02;1.00;;;;;;;;;;4998062;28;20239;-53
2022/07/24 05:23:05;;;;;;;1.48;1.38;;;;;;;;;;5007454;28;20237;-51
2022/07/24 05:25:32;;;;;;;1.63;1.13;;;;;;;;;;5008491;28;20260;-52
2022/07/24 05:27:58;;;;;;;0.80;0.80;;;;;;;;;;5005418;28;20245;-52
2022/07/24 05:30:25;;;;;;;1.15;1.08;;;;;;;;;;5008622;28;20241;-53
2022/07/24 05:32:51;;;;;;;1.40;1.15;;;;;;;;;;5009079;28;20229;-53
2022/07/24 05:35:17;;;;;;;1.50;1.40;;;;;;;;;;5008476;28;20237;-54
2022/07/24 05:37:45;;;;;;;1.20;1.20;;;;;;;;;;5011806;28;20233;-54
2022/07/24 05:40:12;;;;;;;1.85;1.05;;;;;;;;;;5009577;28;20241;-52
2022/07/24 05:42:38;;;;;;;0.80;0.80;;;;;;;;;;5008010;28;20233;-53
2022/07/24 05:45:05;;;;;;;1.33;1.13;;;;;;;;;;5008524;28;20237;-53
2022/07/24 05:47:35;;;;;;;1.10;1.00;;;;;;;;;;5008209;28;20233;-53
2022/07/24 05:50:02;;;;;;;1.10;0.98;;;;;;;;;;5007847;28;20240;-52
2022/07/24 05:52:28;;;;;;;1.55;1.00;;;;;;;;;;5010383;28;20229;-52
2022/07/24 05:54:56;;;;;;;0.85;0.85;;;;;;;;;;5004713;28;20260;-51
2022/07/24 05:57:22;;;;;;;0.95;0.80;;;;;;;;;;5008102;28;20244;-52
2022/07/24 05:59:48;;;;;;;1.30;1.20;;;;;;;;;;5007136;28;20257;-53
2022/07/24 06:02:14;;;;;;;1.08;0.90;;;;;;;;;;5007481;28;20233;-52
2022/07/24 06:04:41;;;;;;;1.10;1.00;;;;;;;;;;5021867;28;20232;-54
2022/07/24 06:07:08;;;;;;;1.15;1.02;;;;;;;;;;5011660;28;20321;-53
2022/07/24 06:09:34;;;;;;;1.50;1.10;;;;;;;;;;5007673;28;20237;-52
2022/07/24 06:12:02;;;;;;;2.88;0.80;;;;;;;;;;5006803;28;20323;-52
2022/07/24 06:14:28;;;;;;;1.23;0.93;;;;;;;;;;5002501;28;20806;-53
2022/07/24 06:16:55;;;;;;;2.70;1.17;;;;;;;;;;5000022;28;20233;-54
2022/07/24 06:19:21;;;;;;;1.05;1.00;;;;;;;;;;4989620;28;20320;-53
2022/07/24 06:21:47;;;;;;;1.00;0.90;;;;;;;;;;4989992;28;20233;-53
2022/07/24 06:24:14;;;;;;;1.80;1.33;;;;;;;;;;5006957;28;20259;-52
2022/07/24 06:26:40;;;;;;;1.15;1.05;;;;;;;;;;5003464;28;20295;-53
2022/07/24 06:29:08;;;;;;;2.88;1.90;;;;;;;;;;5006018;28;20233;-53
2022/07/24 06:31:34;;;;;;;1.85;1.65;;;;;;;;;;5004816;28;20249;-52
2022/07/24 06:34:00;;;;;;;1.88;1.38;;;;;;;;;;5006026;28;20614;-52
2022/07/24 06:36:27;;;;;;;1.65;1.20;;;;;;;;;;5006565;28;20620;-54
2022/07/24 06:38:54;;;;;;;1.70;1.50;;;;;;;;;;5006244;28;20233;-54
2022/07/24 06:41:20;;;;;;;2.70;1.23;;;;;;;;;;5004735;28;20233;-51
2022/07/24 06:43:46;;;;;;;1.33;1.20;;;;;;;;;;5004133;28;20233;-54
2022/07/24 06:46:14;;;;;;;3.08;1.50;;;;;;;;;;5006737;28;20279;-53
2022/07/24 06:48:40;;;;;;;1.67;1.20;;;;;;;;;;5006313;28;20229;-52
2022/07/24 06:51:07;;;;;;;1.63;1.30;;;;;;;;;;5006978;28;20248;-52
2022/07/24 06:53:33;;;;;;;1.23;1.00;;;;;;;;;;5005834;28;20229;-52
2022/07/24 06:55:59;;;;;;;2.25;1.95;;;;;;;;;;5004100;28;20244;-53
2022/07/24 06:58:26;;;;;;;1.30;1.20;;;;;;;;;;5008889;28;20232;-51
2022/07/24 07:00:52;;;;;;;2.50;1.55;;;;;;;;;;5010428;28;20233;-52
2022/07/24 07:03:20;;;;;;;0.80;0.80;;;;;;;;;;5009135;28;20683;-52
2022/07/24 07:05:46;;;;;;;1.10;1.10;;;;;;;;;;5006032;28;20237;-54
2022/07/24 07:08:12;;;;;;;2.38;1.20;;;;;;;;;;5006331;28;20241;-53
2022/07/24 07:10:39;;;;;;;3.33;1.15;;;;;;;;;;5005276;28;20316;-52
2022/07/24 07:13:05;;;;;;;1.80;1.30;;;;;;;;;;5005339;28;20237;-52
2022/07/24 07:15:31;;;;;;;3.22;1.40;;;;;;;;;;5005919;28;20229;-52
2022/07/24 07:17:58;;;;;;;1.95;1.10;;;;;;;;;;5004779;28;20237;-53
2022/07/24 07:20:25;;;;;;;2.20;1.33;;;;;;;;;;4986664;28;20230;-53
2022/07/24 07:22:52;;;;;;;1.77;1.25;;;;;;;;;;5001554;28;20225;-53
2022/07/24 07:25:18;;;;;;;1.45;1.35;;;;;;;;;;5005763;28;20229;-52
2022/07/24 07:27:44;;;;;;;2.35;1.27;;;;;;;;;;5002086;28;20665;-55
2022/07/24 07:30:12;;;;;;;2.08;1.50;;;;;;;;;;5005492;28;20241;-52
2022/07/24 07:32:38;;;;;;;1.20;1.10;;;;;;;;;;4985681;28;20234;-52
2022/07/24 07:35:05;;;;;;;1.23;1.00;;;;;;;;;;5005728;28;20241;-52
2022/07/24 07:37:33;;;;;;;1.13;1.10;;;;;;;;;;5005127;28;20235;-52
2022/07/24 07:39:59;;;;;;;0.98;0.98;;;;;;;;;;5005341;28;20240;-53
2022/07/24 07:42:26;;;;;;;3.17;0.85;;;;;;;;;;4981652;28;20241;-53
2022/07/24 07:44:52;;;;;;;1.05;1.02;;;;;;;;;;4989077;28;20237;-53
2022/07/24 07:47:18;;;;;;;1.00;1.00;;;;;;;;;;5000986;28;20232;-53
2022/07/24 07:49:45;;;;;;;2.25;0.90;;;;;;;;;;5009642;28;20244;-53
2022/07/24 07:52:11;;;;;;;1.17;1.10;;;;;;;;;;5014444;28;20267;-53
2022/07/24 07:54:39;;;;;;;1.17;1.10;;;;;;;;;;5014157;28;20232;-53
2022/07/24 07:57:05;;;;;;;1.10;1.00;;;;;;;;;;5019440;28;20240;-53
2022/07/24 07:59:31;;;;;;;0.98;0.80;;;;;;;;;;5008261;28;20604;-52
2022/07/24 08:01:58;;;;;;;1.15;1.10;;;;;;;;;;4994543;28;20237;-53
2022/07/24 08:04:24;;;;;;;1.75;0.77;;;;;;;;;;5008534;28;20229;-53
2022/07/24 08:06:51;;;;;;;1.83;1.15;;;;;;;;;;5008508;28;20291;-54
2022/07/24 08:09:17;;;;;;;1.27;1.17;;;;;;;;;;5008640;28;20236;-53
2022/07/24 08:11:45;;;;;;;1.23;0.90;;;;;;;;;;5008415;28;20233;-53
2022/07/24 08:14:11;;;;;;;1.17;0.90;;;;;;;;;;5008900;28;20233;-53
2022/07/24 08:16:38;;;;;;;0.82;0.82;;;;;;;;;;5007972;28;20268;-52
2022/07/24 08:19:04;;;;;;;1.00;0.95;;;;;;;;;;5004333;28;20241;-52
2022/07/24 08:21:31;;;;;;;1.00;0.90;;;;;;;;;;5007952;28;20237;-52
2022/07/24 08:23:58;;;;;;;0.98;0.70;;;;;;;;;;5009161;28;20252;-54
2022/07/24 08:26:24;;;;;;;2.63;1.05;;;;;;;;;;5003095;28;20269;-53
2022/07/24 08:28:52;;;;;;;0.82;0.82;;;;;;;;;;5002122;28;20237;-53
2022/07/24 08:31:18;;;;;;;1.83;1.13;;;;;;;;;;5004836;28;20237;-53
2022/07/24 08:33:45;;;;;;;0.90;0.80;;;;;;;;;;5003421;28;20689;-54
2022/07/24 08:36:11;;;;;;;0.80;0.68;;;;;;;;;;4997129;28;20851;-53
2022/07/24 08:38:37;;;;;;;1.48;0.90;;;;;;;;;;5000776;28;20260;-53
2022/07/24 08:41:04;;;;;;;2.15;0.90;;;;;;;;;;5007771;28;20237;-53
2022/07/24 08:43:30;;;;;;;1.05;0.93;;;;;;;;;;4998023;28;20237;-52
2022/07/24 08:46:00;;;;;;;0.93;0.80;;;;;;;;;;5007719;28;20252;-52
2022/07/24 08:48:27;;;;;;;3.53;0.95;;;;;;;;;;4998021;28;20728;-53
2022/07/24 08:50:54;;;;;;;2.35;1.25;;;;;;;;;;5003687;28;20225;-52
2022/07/24 08:53:21;;;;;;;1.60;1.02;;;;;;;;;;5006548;28;20821;-52
2022/07/24 08:55:47;;;;;;;2.13;1.00;;;;;;;;;;5004431;28;20268;-53
2022/07/24 08:58:13;;;;;;;0.70;0.70;;;;;;;;;;5003509;28;20240;-52
2022/07/24 09:00:41;;;;;;;0.68;0.68;;;;;;;;;;4996811;28;20233;-53
2022/07/24 09:03:08;;;;;;;0.98;0.90;;;;;;;;;;4995557;28;20233;-53
2022/07/24 09:05:54;;;;;;;0.88;0.88;;;;;;;;;;5004135;28;20242;-52
2022/07/24 09:08:20;;;;;;;2.05;1.33;;;;;;;;;;5027463;28;20464;-52
2022/07/24 09:10:54;;;;;;;3.65;2.50;;;;;;;;;;5009119;28;20241;-53
2022/07/24 09:13:20;;;;;;;1.33;1.23;;;;;;;;;;5008125;28;20525;-52
2022/07/24 09:15:47;;;;;;;3.88;1.85;;;;;;;;;;5007168;28;20624;-53
2022/07/24 09:18:28;;;;;;;1.13;1.10;;;;;;;;;;5007274;28;20578;-53
2022/07/24 09:20:54;;;;;;;1.92;1.23;;;;;;;;;;4989364;28;20230;-53
2022/07/24 09:23:21;;;;;;;1.20;1.10;;;;;;;;;;5007681;28;20657;-52
2022/07/24 09:25:50;;;;;;;0.77;0.75;;;;;;;;;;5007071;28;20229;-52
2022/07/24 09:28:17;;;;;;;2.60;1.38;;;;;;;;;;5002698;28;20584;-53
2022/07/24 09:30:45;;;;;;;1.60;0.82;;;;;;;;;;4997769;28;20250;-52
2022/07/24 09:33:15;;;;;;;1.02;0.82;;;;;;;;;;5004930;28;20244;-53
2022/07/24 09:35:44;;;;;;;2.17;2.05;;;;;;;;;;5007739;28;20237;-52
2022/07/24 09:38:11;;;;;;;1.58;1.45;;;;;;;;;;4998271;28;20312;-53
2022/07/24 09:40:39;;;;;;;0.95;0.85;;;;;;;;;;4995976;28;20243;-52
2022/07/24 09:43:15;;;;;;;1.40;1.27;;;;;;;;;;5002862;28;20245;-53
2022/07/24 09:45:52;;;;;;;1.90;0.90;;;;;;;;;;5002210;28;20801;-52
2022/07/24 09:48:19;;;;;;;1.35;1.13;;;;;;;;;;5005947;28;20243;-54
2022/07/24 09:50:51;;;;;;;1.20;1.10;;;;;;;;;;5001147;28;20233;-54
2022/07/24 09:53:19;;;;;;;1.35;0.90;;;;;;;;;;5015061;28;20287;-53
2022/07/24 09:55:45;;;;;;;1.02;1.02;;;;;;;;;;5009725;28;20236;-53
2022/07/24 09:58:17;;;;;;;1.17;1.08;;;;;;;;;;5003707;28;20234;-52
2022/07/24 10:00:44;;;;;;;1.00;1.00;;;;;;;;;;4994705;28;20233;-52
2022/07/24 10:03:14;;;;;;;1.10;1.10;;;;;;;;;;5004202;28;20243;-53
2022/07/24 10:05:43;;;;;;;0.98;0.85;;;;;;;;;;5003216;28;20721;-52
2022/07/24 10:08:14;;;;;;;1.60;1.50;;;;;;;;;;4994824;28;20233;-53
2022/07/24 10:10:41;;;;;;;1.13;1.02;;;;;;;;;;4991188;28;20241;-53
2022/07/24 10:13:08;;;;;;;1.33;1.23;;;;;;;;;;5000811;28;20730;-52
2022/07/24 10:15:39;;;;;;;1.60;1.50;;;;;;;;;;5004704;28;20233;-52
2022/07/24 10:18:15;;;;;;;2.85;1.13;;;;;;;;;;5000334;28;20241;-51
2022/07/24 10:20:42;;;;;;;2.75;1.23;;;;;;;;;;5005980;28;20241;-52
2022/07/24 10:23:08;;;;;;;1.30;1.20;;;;;;;;;;4993136;28;20240;-53
2022/07/24 10:25:48;;;;;;;1.38;1.27;;;;;;;;;;5004937;28;25088;-51
2022/07/24 10:28:15;;;;;;;2.47;1.08;;;;;;;;;;4999477;28;20228;-52
2022/07/24 10:30:42;;;;;;;1.30;1.20;;;;;;;;;;5000374;28;20237;-52
2022/07/24 10:33:08;;;;;;;3.13;1.90;;;;;;;;;;5001791;28;20240;-53
2022/07/24 10:35:36;;;;;;;3.00;1.40;;;;;;;;;;4994558;28;20244;-53
2022/07/24 10:38:05;;;;;;;3.13;1.38;;;;;;;;;;5003015;28;20241;-53
2022/07/24 10:40:36;;;;;;;1.45;1.30;;;;;;;;;;5003322;28;20699;-52
2022/07/24 10:43:10;;;;;;;1.92;1.25;;;;;;;;;;5003550;28;20707;-52
2022/07/24 10:45:38;;;;;;;2.53;0.98;;;;;;;;;;5003493;28;20324;-52
2022/07/24 10:48:24;;;;;;;2.20;1.33;;;;;;;;;;5003202;28;20620;-53
2022/07/24 10:51:02;;;;;;;1.33;1.23;;;;;;;;;;4999472;28;20614;-52
2022/07/24 10:53:29;;;;;;;1.58;1.40;;;;;;;;;;5002142;28;20233;-52
2022/07/24 10:56:14;;;;;;;1.42;1.33;;;;;;;;;;5000973;28;20244;-53
2022/07/24 10:58:52;;;;;;;1.80;1.70;;;;;;;;;;4997798;28;20248;-51
2022/07/24 11:01:29;;;;;;;1.30;1.20;;;;;;;;;;4993361;28;20225;-52
2022/07/24 11:03:55;;;;;;;1.92;1.30;;;;;;;;;;4996611;28;20233;-52
2022/07/24 11:06:39;;;;;;;1.27;1.20;;;;;;;;;;4995177;28;20241;-53
2022/07/24 11:09:05;;;;;;;1.73;1.23;;;;;;;;;;4992880;28;20236;-53
2022/07/24 11:11:31;;;;;;;1.35;1.25;;;;;;;;;;5000570;28;20240;-53
2022/07/24 11:14:01;;;;;;;2.03;1.40;;;;;;;;;;5002244;28;20240;-53
2022/07/24 11:16:28;;;;;;;2.38;1.13;;;;;;;;;;5003434;28;20229;-52
2022/07/24 11:19:13;;;;;;;2.45;1.52;;;;;;;;;;5000847;28;20233;-52
2022/07/24 11:21:41;;;;;;;1.92;1.67;;;;;;;;;;4998640;28;20703;-52
2022/07/24 11:24:19;;;;;;;1.35;1.25;;;;;;;;;;5003055;28;20609;-52
2022/07/24 11:26:49;;;;;;;1.50;1.38;;;;;;;;;;5003441;28;20295;-53
2022/07/24 11:29:17;;;;;;;1.33;1.17;;;;;;;;;;5003779;28;20239;-52
2022/07/24 11:31:44;;;;;;;2.38;1.25;;;;;;;;;;4999584;28;20786;-52
2022/07/24 11:34:11;;;;;;;1.27;1.15;;;;;;;;;;4993767;28;20754;-53
2022/07/24 11:36:40;;;;;;;2.65;1.58;;;;;;;;;;4997319;28;20230;-52
2022/07/24 11:39:06;;;;;;;2.22;1.80;;;;;;;;;;5000707;28;20268;-52
2022/07/24 11:41:44;;;;;;;2.00;1.38;;;;;;;;;;5006463;28;20232;-52
2022/07/24 11:44:10;;;;;;;2.45;1.25;;;;;;;;;;5007260;28;20244;-54
2022/07/24 11:46:39;;;;;;;1.38;1.23;;;;;;;;;;5001782;28;20767;-52
2022/07/24 11:49:06;;;;;;;3.20;1.38;;;;;;;;;;5001613;28;20268;-53
2022/07/24 11:51:32;;;;;;;1.95;1.65;;;;;;;;;;4997291;28;20225;-52
2022/07/24 11:54:01;;;;;;;1.40;1.25;;;;;;;;;;5013066;28;20248;-52
2022/07/24 11:56:30;;;;;;;3.15;1.73;;;;;;;;;;5002351;28;20723;-52
2022/07/24 11:58:56;;;;;;;1.20;1.10;;;;;;;;;;5001858;28;20235;-52
2022/07/24 12:01:23;;;;;;;2.45;1.40;;;;;;;;;;4998375;28;20264;-52
2022/07/24 12:03:51;;;;;;;1.45;1.35;;;;;;;;;;4997338;28;20240;-53
2022/07/24 12:06:18;;;;;;;1.98;1.05;;;;;;;;;;4995188;28;20322;-52
2022/07/24 12:08:45;;;;;;;1.67;1.20;;;;;;;;;;5000384;28;20238;-54
2022/07/24 12:11:11;;;;;;;1.83;1.40;;;;;;;;;;5003681;28;20249;-52
2022/07/24 12:13:41;;;;;;;1.58;1.33;;;;;;;;;;5000868;28;20241;-52
2022/07/24 12:16:07;;;;;;;1.30;1.20;;;;;;;;;;4999492;28;20249;-54
2022/07/24 12:18:34;;;;;;;2.10;1.10;;;;;;;;;;5002633;28;20229;-53
2022/07/24 12:21:02;;;;;;;1.10;1.00;;;;;;;;;;5001493;28;20237;-54
2022/07/24 12:23:29;;;;;;;1.10;1.00;;;;;;;;;;5000076;28;20243;-52
2022/07/24 12:25:56;;;;;;;1.95;1.27;;;;;;;;;;5002932;28;20237;-52
2022/07/24 12:28:23;;;;;;;1.38;1.00;;;;;;;;;;5002081;28;20794;-52
2022/07/24 12:30:50;;;;;;;0.98;0.95;;;;;;;;;;5002490;28;20241;-53
2022/07/24 12:33:20;;;;;;;2.80;1.25;;;;;;;;;;5001554;28;20243;-52
2022/07/24 12:35:54;;;;;;;3.55;1.67;;;;;;;;;;5010274;28;20228;-54
2022/07/24 12:38:26;;;;;;;1.40;1.30;;;;;;;;;;5007974;28;20224;-53
2022/07/24 12:40:52;;;;;;;1.90;1.33;;;;;;;;;;5002761;28;20335;-53
2022/07/24 12:43:19;;;;;;;0.82;0.82;;;;;;;;;;4995997;28;20232;-52
2022/07/24 12:45:45;;;;;;;1.48;1.25;;;;;;;;;;4999706;28;20229;-52
2022/07/24 12:48:19;;;;;;;1.13;1.00;;;;;;;;;;5001458;28;20229;-52
2022/07/24 12:51:02;;;;;;;1.48;1.13;;;;;;;;;;4998358;28;20295;-52
2022/07/24 12:53:30;;;;;;;1.48;0.95;;;;;;;;;;5003335;28;20665;-52
2022/07/24 12:56:04;;;;;;;1.10;1.00;;;;;;;;;;5003135;28;20616;-53
2022/07/24 12:58:30;;;;;;;2.97;1.13;;;;;;;;;;5003133;28;20236;-53
2022/07/24 13:00:57;;;;;;;1.20;1.00;;;;;;;;;;5000799;28;20236;-52
2022/07/24 13:03:25;;;;;;;1.45;1.35;;;;;;;;;;4999092;28;20303;-53
2022/07/24 13:05:55;;;;;;;2.22;1.30;;;;;;;;;;5004609;28;20240;-51
2022/07/24 13:08:21;;;;;;;1.30;1.20;;;;;;;;;;5000432;28;20243;-54
2022/07/24 13:10:49;;;;;;;1.25;0.90;;;;;;;;;;5006463;28;20239;-54
2022/07/24 13:13:15;;;;;;;1.23;1.08;;;;;;;;;;5002990;28;20244;-52
2022/07/24 13:15:42;;;;;;;1.25;1.08;;;;;;;;;;5006914;28;20537;-53
2022/07/24 13:18:08;;;;;;;1.25;0.98;;;;;;;;;;5004387;28;20239;-52
2022/07/24 13:20:34;;;;;;;1.25;1.15;;;;;;;;;;5005018;28;20717;-52
2022/07/24 13:23:01;;;;;;;1.10;1.00;;;;;;;;;;5003702;28;20241;-52
2022/07/24 13:25:27;;;;;;;1.60;1.23;;;;;;;;;;5001088;28;20639;-52
2022/07/24 13:27:55;;;;;;;3.25;1.70;;;;;;;;;;5004524;28;20372;-52
2022/07/24 13:30:21;;;;;;;1.50;1.17;;;;;;;;;;5006757;28;20240;-53
2022/07/24 13:32:47;;;;;;;1.70;1.10;;;;;;;;;;5002633;28;20239;-53
2022/07/24 13:35:14;;;;;;;1.40;1.30;;;;;;;;;;5000688;28;20233;-53
2022/07/24 13:37:41;;;;;;;1.20;1.10;;;;;;;;;;5003509;28;20271;-54
2022/07/24 13:40:11;;;;;;;3.60;1.30;;;;;;;;;;5004472;28;20711;-51
2022/07/24 13:42:37;;;;;;;1.42;1.33;;;;;;;;;;5000782;28;20241;-52
2022/07/24 13:45:06;;;;;;;1.00;1.00;;;;;;;;;;5005213;28;20236;-52
2022/07/24 13:47:32;;;;;;;1.10;1.00;;;;;;;;;;5005302;28;20229;-52
2022/07/24 13:49:58;;;;;;;1.33;1.23;;;;;;;;;;5005043;28;20237;-52
2022/07/24 13:52:25;;;;;;;1.20;1.10;;;;;;;;;;5002807;28;20329;-51
2022/07/24 13:54:51;;;;;;;1.08;1.00;;;;;;;;;;5006018;28;20229;-51
2022/07/24 13:57:17;;;;;;;2.83;1.92;;;;;;;;;;5004200;28;20638;-53
2022/07/24 13:59:44;;;;;;;2.13;1.88;;;;;;;;;;5004729;28;20230;-52
2022/07/24 14:02:11;;;;;;;1.73;1.33;;;;;;;;;;5007373;28;20237;-51
2022/07/24 14:04:38;;;;;;;1.30;1.20;;;;;;;;;;5009110;28;20233;-52
2022/07/24 14:07:04;;;;;;;1.30;1.20;;;;;;;;;;5011238;28;20229;-53
2022/07/24 14:09:31;;;;;;;1.10;1.00;;;;;;;;;;5010647;28;20234;-53
2022/07/24 14:11:57;;;;;;;2.05;1.48;;;;;;;;;;5006370;28;20240;-52
2022/07/24 14:14:24;;;;;;;1.42;1.20;;;;;;;;;;5006473;28;20778;-52
2022/07/24 14:16:50;;;;;;;2.53;1.33;;;;;;;;;;4999794;28;20695;-52
2022/07/24 14:19:18;;;;;;;1.77;1.33;;;;;;;;;;5005450;28;20244;-53
2022/07/24 14:21:47;;;;;;;1.08;1.08;;;;;;;;;;5006378;28;20233;-53
2022/07/24 14:24:14;;;;;;;1.77;1.10;;;;;;;;;;5002562;28;20248;-52
2022/07/24 14:26:40;;;;;;;1.20;1.10;;;;;;;;;;5002269;28;20233;-51
2022/07/24 14:29:06;;;;;;;3.58;1.30;;;;;;;;;;5001164;28;20225;-51
2022/07/24 14:31:32;;;;;;;1.85;1.60;;;;;;;;;;5002634;28;20236;-53
2022/07/24 14:33:59;;;;;;;2.00;1.70;;;;;;;;;;5002440;28;20228;-51
2022/07/24 14:36:27;;;;;;;1.38;1.10;;;;;;;;;;5004819;28;20240;-52
2022/07/24 14:38:53;;;;;;;1.40;1.30;;;;;;;;;;5004252;28;20248;-51
2022/07/24 14:41:19;;;;;;;1.48;1.30;;;;;;;;;;5005638;28;20237;-52
2022/07/24 14:43:46;;;;;;;1.58;1.48;;;;;;;;;;5004575;28;20244;-54